Time;durP1;ratioP1;P1;durP2;ratioP2;P2;SDS_P1;SDS_P2;PMS_P1;PMS_P2;Temp;Humidity;BMP_temperature;BMP_pressure;BME280_temperature;BME280_humidity;BME280_pressure;Samples;Min_cycle;Max_cycle;Signal;HPM_P1;HPM_P2
2023/01/03 00:01:35;;;;;;;8.20;2.70;;;;;;;10.08;45.65;102413.91;7398358;19;19995;-59
2023/01/03 00:04:01;;;;;;;9.90;2.55;;;;;;;10.14;45.49;102410.81;7399557;19;19998;-57
2023/01/03 00:06:32;;;;;;;9.38;3.38;;;;;;;10.01;45.92;102420.56;7399108;19;20392;-59
2023/01/03 00:09:01;;;;;;;8.88;2.78;;;;;;;9.99;46.04;102417.31;7399461;19;20039;-57
2023/01/03 00:14:19;;;;;;;11.05;3.40;;;;;;;9.96;45.85;102423.38;7398149;19;20066;-59
2023/01/03 00:16:48;;;;;;;7.53;2.78;;;;;;;9.94;46.11;102436.50;7399402;19;20073;-58
2023/01/03 00:19:14;;;;;;;12.57;3.10;;;;;;;9.90;46.20;102430.03;7399444;19;20013;-59
2023/01/03 00:21:41;;;;;;;8.40;2.78;;;;;;;10.07;45.94;102434.94;7395955;19;20332;-58
2023/01/03 00:24:09;;;;;;;11.98;3.00;;;;;;;9.99;45.92;102443.81;7397492;19;19994;-60
2023/01/03 00:26:35;;;;;;;8.73;3.22;;;;;;;9.94;46.17;102446.63;7396869;19;20340;-59
2023/01/03 00:29:01;;;;;;;13.60;3.70;;;;;;;9.93;46.11;102442.25;7398659;19;20463;-59
2023/01/03 00:31:26;;;;;;;9.25;2.70;;;;;;;9.99;46.02;102454.72;7397041;19;20023;-59
2023/01/03 00:33:52;;;;;;;9.98;3.10;;;;;;;9.82;46.44;102460.72;7394439;19;20038;-58
2023/01/03 00:36:18;;;;;;;10.35;3.20;;;;;;;9.74;46.80;102450.47;7397792;19;20433;-58
2023/01/03 00:38:44;;;;;;;7.68;3.08;;;;;;;9.78;46.46;102456.94;7400120;19;19998;-58
2023/01/03 00:41:13;;;;;;;11.70;3.30;;;;;;;9.77;46.27;102460.78;7394558;19;20002;-59
2023/01/03 00:43:41;;;;;;;12.43;3.58;;;;;;;9.66;46.58;102465.56;7391842;19;20006;-59
2023/01/03 00:46:08;;;;;;;7.88;3.42;;;;;;;9.66;46.46;102470.22;7394818;19;20631;-58
2023/01/03 00:48:35;;;;;;;11.15;3.55;;;;;;;9.68;46.44;102462.53;7393025;19;19999;-58
2023/01/03 00:51:08;;;;;;;7.07;3.13;;;;;;;9.68;46.57;102465.25;7392337;19;20001;-57
2023/01/03 00:53:35;;;;;;;;;;;;;;;9.24;46.91;102469.91;7392316;19;20030;-59
2023/01/03 00:56:02;;;;;;;8.35;3.10;;;;;;;9.48;47.31;102474.50;7394317;19;19918;-59
2023/01/03 00:58:30;;;;;;;9.93;3.30;;;;;;;9.66;46.78;102476.47;7396343;19;20007;-59
2023/01/03 01:00:56;;;;;;;8.50;3.55;;;;;;;9.42;47.20;102476.50;7397573;19;20026;-59
2023/01/03 01:03:21;;;;;;;11.13;4.10;;;;;;;9.63;46.76;102480.59;7394741;19;20006;-59
2023/01/03 01:05:47;;;;;;;11.07;4.07;;;;;;;9.64;46.40;102478.69;7395798;19;20029;-60
2023/01/03 01:08:13;;;;;;;9.85;3.40;;;;;;;9.64;46.36;102487.66;7397925;19;19998;-59
2023/01/03 01:11:00;;;;;;;9.18;3.25;;;;;;;9.66;46.35;102489.28;7397388;19;20010;-60
2023/01/03 01:13:30;;;;;;;10.73;3.28;;;;;;;9.53;46.65;102490.78;7394928;19;20025;-61
2023/01/03 01:16:01;;;;;;;9.10;3.65;;;;;;;9.47;46.86;102492.78;7397238;19;20019;-59
2023/01/03 01:18:27;;;;;;;10.05;3.60;;;;;;;9.52;46.63;102500.09;7396844;19;20002;-60
2023/01/03 01:20:53;;;;;;;9.50;3.30;;;;;;;9.50;46.58;102508.56;7396507;19;20482;-60
2023/01/03 01:23:19;;;;;;;11.25;3.72;;;;;;;9.42;47.05;102509.19;7394680;19;20010;-60
2023/01/03 01:25:44;;;;;;;10.27;3.63;;;;;;;9.35;47.14;102511.44;7397457;19;20132;-62
2023/01/03 01:28:10;;;;;;;12.32;3.50;;;;;;;9.31;46.93;102524.03;7395769;19;19994;-60
2023/01/03 01:30:37;;;;;;;11.80;3.63;;;;;;;9.30;46.95;102514.22;7397021;19;20019;-60
2023/01/03 01:33:03;;;;;;;9.60;3.50;;;;;;;9.35;46.80;102520.44;7393192;19;20014;-60
2023/01/03 01:35:28;;;;;;;10.02;3.83;;;;;;;9.28;46.82;102528.16;7396619;19;20435;-61
2023/01/03 01:37:55;;;;;;;9.38;3.75;;;;;;;9.33;46.89;102532.72;7395632;19;19994;-60
2023/01/03 01:40:21;;;;;;;10.10;3.50;;;;;;;9.32;46.55;102533.84;7397149;19;19991;-60
2023/01/03 01:45:31;;;;;;;10.93;3.90;;;;;;;9.33;46.85;102549.88;7395765;19;20054;-60
2023/01/03 01:48:05;;;;;;;8.20;3.42;;;;;;;9.39;46.57;102545.22;7396360;19;20497;-59
2023/01/03 01:50:37;;;;;;;9.93;3.50;;;;;;;9.53;46.23;102534.41;7395822;19;19990;-59
2023/01/03 01:53:17;;;;;;;9.70;3.50;;;;;;;9.37;46.29;102548.22;7394231;19;19994;-59
2023/01/03 01:56:17;;;;;;;13.00;3.42;;;;;;;9.23;46.62;102547.28;7396141;19;20001;-59
2023/01/03 01:58:45;;;;;;;7.97;3.13;;;;;;;9.35;46.71;102550.44;7396164;19;20014;-59
2023/01/03 02:01:13;;;;;;;10.75;3.22;;;;;;;9.45;46.47;102544.06;7395646;19;19998;-59
2023/01/03 02:03:41;;;;;;;10.55;3.20;;;;;;;9.46;46.37;102551.09;7391318;19;20002;-59
2023/01/03 02:06:10;;;;;;;7.10;3.17;;;;;;;9.49;46.42;102544.28;7394329;19;19990;-59
2023/01/03 02:08:36;;;;;;;7.78;3.47;;;;;;;9.41;46.62;102551.16;7395460;19;20499;-59
2023/01/03 02:11:36;;;;;;;10.75;3.50;;;;;;;9.46;46.36;102548.38;7393649;19;19986;-60
2023/01/03 02:14:29;;;;;;;10.27;3.58;;;;;;;9.43;46.29;102547.06;7394427;19;19995;-59
2023/01/03 02:17:45;;;;;;;10.40;3.60;;;;;;;9.39;46.39;102546.00;7395264;19;20033;-59
2023/01/03 02:20:39;;;;;;;10.65;3.67;;;;;;;9.35;46.53;102538.69;7392279;19;20002;-59
2023/01/03 02:23:11;;;;;;;9.48;3.45;;;;;;;9.34;46.59;102543.34;7390562;19;20411;-60
2023/01/03 02:25:49;;;;;;;8.32;3.22;;;;;;;9.35;46.41;102535.97;7395258;19;20068;-58
2023/01/03 02:29:09;;;;;;;11.55;3.97;;;;;;;9.24;46.28;102540.75;7393748;19;20011;-59
2023/01/03 02:31:46;;;;;;;13.32;3.83;;;;;;;9.19;46.76;102538.88;7390154;19;20002;-61
2023/01/03 02:34:28;;;;;;;10.20;3.63;;;;;;;9.11;46.45;102544.16;7390584;19;20014;-58
2023/01/03 02:37:03;;;;;;;13.95;3.67;;;;;;;9.11;46.75;102544.16;7395450;19;20013;-59
2023/01/03 02:39:37;;;;;;;9.80;3.83;;;;;;;9.03;46.88;102549.13;7394771;19;19994;-59
2023/01/03 02:45:14;;;;;;;9.18;3.80;;;;;;;9.13;46.57;102550.91;7398000;19;19999;-59
2023/01/03 02:47:53;;;;;;;13.32;4.32;;;;;;;9.11;46.17;102544.97;7400776;19;19998;-58
2023/01/03 02:50:25;;;;;;;12.35;3.67;;;;;;;9.15;46.35;102545.19;7402400;19;20011;-59
2023/01/03 02:52:55;;;;;;;8.98;3.95;;;;;;;9.12;46.38;102552.03;7398960;19;20005;-59
2023/01/03 02:55:29;;;;;;;9.13;3.80;;;;;;;9.05;46.36;102551.56;7402278;19;20003;-59
2023/01/03 02:58:04;;;;;;;10.60;3.78;;;;;;;8.99;46.46;102550.78;7401241;19;20352;-58
2023/01/03 03:00:33;;;;;;;10.80;4.30;;;;;;;8.80;46.89;102556.16;7400118;19;20010;-61
2023/01/03 03:03:05;;;;;;;9.45;3.95;;;;;;;8.94;46.60;102548.13;7398581;19;20498;-60
2023/01/03 03:05:41;;;;;;;15.25;4.07;;;;;;;9.05;46.55;102557.03;7402018;19;20010;-59
2023/01/03 03:08:07;;;;;;;12.25;4.40;;;;;;;8.97;46.46;102553.00;7399406;19;20065;-59
2023/01/03 03:13:38;;;;;;;9.70;4.13;;;;;;;8.87;46.33;102550.38;7398267;19;20002;-60
2023/01/03 03:16:09;;;;;;;10.90;4.30;;;;;;;8.88;46.45;102555.53;7401211;19;19998;-59
2023/01/03 03:18:59;;;;;;;10.63;4.03;;;;;;;8.74;46.10;102562.75;7401304;19;20025;-59
2023/01/03 03:30:16;;;;;;;12.88;5.47;;;;;;;8.81;46.47;102570.59;7398649;19;19995;-59
2023/01/03 03:32:45;;;;;;;12.63;4.88;;;;;;;8.71;46.48;102582.38;7398127;19;20005;-59
2023/01/03 03:35:14;;;;;;;11.73;4.93;;;;;;;8.80;46.03;102583.38;7401182;19;20002;-60
2023/01/03 03:37:44;;;;;;;10.68;5.22;;;;;;;8.74;46.23;102587.25;7400805;19;20070;-59
2023/01/03 03:46:01;;;;;;;12.57;4.68;;;;;;;8.65;46.14;102586.25;7401079;19;20111;-61
2023/01/03 03:49:36;;;;;;;10.27;4.30;;;;;;;8.70;45.85;102586.19;7398034;19;20447;-59
2023/01/03 03:51:27;;;;;;;9.90;4.18;;;;;;;8.58;45.98;102591.19;7399574;19;20003;-59
2023/01/03 03:53:55;;;;;;;8.88;3.53;;;;;;;8.66;45.79;102593.28;7399019;19;19991;-59
2023/01/03 03:56:27;;;;;;;8.80;4.00;;;;;;;8.73;45.32;102598.41;7397728;19;20053;-59
2023/01/03 03:58:59;;;;;;;10.02;4.25;;;;;;;8.79;45.21;102598.09;7399820;19;20046;-61
2023/01/03 04:01:26;;;;;;;12.30;3.58;;;;;;;8.65;45.37;102591.69;7399936;19;20005;-62
2023/01/03 04:03:56;;;;;;;10.68;4.03;;;;;;;8.75;44.88;102597.03;7395048;19;19999;-63
2023/01/03 04:06:29;;;;;;;10.20;3.55;;;;;;;8.56;45.34;102607.00;7398854;19;20011;-62
2023/01/03 04:08:55;;;;;;;9.95;3.65;;;;;;;8.48;45.39;102609.22;7399791;19;20002;-61
2023/01/03 04:11:21;;;;;;;8.32;3.50;;;;;;;8.60;45.07;102608.88;7399867;19;20082;-61
2023/01/03 04:13:46;;;;;;;8.98;3.60;;;;;;;8.51;45.25;102610.56;7398751;19;19986;-60
2023/01/03 04:16:12;;;;;;;13.05;4.03;;;;;;;8.42;45.24;102620.44;7398743;19;20076;-61
2023/01/03 04:18:38;;;;;;;8.10;3.75;;;;;;;8.40;45.55;102620.69;7399536;19;20002;-58
2023/01/03 04:21:04;;;;;;;11.10;4.30;;;;;;;8.58;45.01;102619.22;7395016;19;20353;-59
2023/01/03 04:23:29;;;;;;;11.55;4.60;;;;;;;8.57;45.24;102619.50;7391772;19;20002;-59
2023/01/03 04:25:55;;;;;;;12.75;4.13;;;;;;;8.58;45.23;102621.94;7395450;19;20454;-59
2023/01/03 04:28:21;;;;;;;10.57;4.15;;;;;;;8.48;45.42;102631.00;7395336;19;20001;-59
2023/01/03 04:30:47;;;;;;;10.45;4.32;;;;;;;8.33;45.78;102631.06;7395005;19;20005;-60
2023/01/03 04:33:12;;;;;;;10.40;3.92;;;;;;;8.28;45.75;102631.06;7390911;19;20015;-60
2023/01/03 04:35:38;;;;;;;10.40;4.38;;;;;;;8.28;45.72;102620.19;7394847;19;20016;-59
2023/01/03 04:38:05;;;;;;;11.10;4.50;;;;;;;8.33;45.65;102617.47;7393249;19;20463;-60
2023/01/03 04:40:33;;;;;;;12.65;4.78;;;;;;;8.36;45.45;102627.78;7394144;19;20035;-58
2023/01/03 04:45:43;;;;;;;10.90;4.88;;;;;;;8.24;45.91;102624.56;7394625;19;20002;-60
2023/01/03 04:48:09;;;;;;;13.90;5.70;;;;;;;8.39;45.51;102627.22;7394061;19;20016;-59
2023/01/03 04:50:34;;;;;;;11.40;5.50;;;;;;;8.28;45.89;102631.06;7393903;19;20002;-61
2023/01/03 04:53:00;;;;;;;9.48;4.78;;;;;;;8.08;46.20;102621.94;7392083;19;20464;-61
2023/01/03 04:55:26;;;;;;;13.20;5.05;;;;;;;8.12;46.10;102627.63;7394222;19;20458;-61
2023/01/03 04:57:52;;;;;;;11.88;5.30;;;;;;;8.10;46.23;102625.19;7394116;19;19991;-61
2023/01/03 05:00:18;;;;;;;10.40;4.90;;;;;;;8.25;45.78;102626.22;7394387;19;20002;-60
2023/01/03 05:02:44;;;;;;;12.48;5.32;;;;;;;8.35;45.77;102623.47;7391186;19;20479;-61
2023/01/03 05:05:10;;;;;;;13.65;5.22;;;;;;;8.32;45.71;102618.56;7394313;19;20066;-61
2023/01/03 05:07:36;;;;;;;12.57;5.00;;;;;;;8.37;45.41;102623.97;7392737;19;20002;-59
2023/01/03 05:10:02;;;;;;;11.95;5.57;;;;;;;8.22;45.85;102630.28;7393530;19;20006;-59
2023/01/03 05:12:28;;;;;;;12.20;5.50;;;;;;;8.28;45.87;102628.34;7391225;19;20070;-58
2023/01/03 05:14:54;;;;;;;13.05;4.90;;;;;;;8.37;45.44;102629.44;7393276;19;20498;-59
2023/01/03 05:17:20;;;;;;;14.13;5.53;;;;;;;8.35;45.69;102631.63;7393701;19;20006;-59
2023/01/03 05:28:00;;;;;;;12.90;5.85;;;;;;;8.27;46.02;102621.28;7392553;19;20495;-58
2023/01/03 05:30:27;;;;;;;12.80;5.57;;;;;;;8.23;45.91;102636.53;7393187;19;20007;-59
2023/01/03 05:32:52;;;;;;;13.25;5.50;;;;;;;8.24;46.00;102632.75;7391027;19;20025;-58
2023/01/03 05:35:18;;;;;;;11.57;5.40;;;;;;;8.14;46.28;102631.69;7393173;19;20471;-58
2023/01/03 05:37:44;;;;;;;12.65;5.03;;;;;;;8.22;45.95;102634.94;7392688;19;20002;-58
2023/01/03 05:40:10;;;;;;;11.88;5.70;;;;;;;8.34;45.77;102641.66;7390752;19;19995;-58
2023/01/03 05:42:36;;;;;;;18.08;5.50;;;;;;;8.32;45.70;102634.91;7390991;19;20002;-58
2023/01/03 05:45:02;;;;;;;12.48;5.03;;;;;;;8.34;45.85;102647.13;7392088;19;19987;-58
2023/01/03 05:47:27;;;;;;;13.60;5.43;;;;;;;8.34;45.98;102643.59;7392764;19;20493;-57
2023/01/03 05:49:53;;;;;;;11.70;5.35;;;;;;;8.47;45.77;102647.59;7392412;19;19999;-57
2023/01/03 05:52:19;;;;;;;15.05;5.90;;;;;;;8.38;45.81;102647.38;7391015;19;20018;-59
2023/01/03 05:54:44;;;;;;;12.93;5.80;;;;;;;8.35;45.75;102650.66;7392259;19;19995;-59
2023/01/03 05:57:10;;;;;;;13.23;5.68;;;;;;;8.43;45.64;102654.69;7392266;19;20023;-59
2023/01/03 05:59:36;;;;;;;13.68;5.85;;;;;;;8.19;46.28;102655.31;7392065;19;20314;-59
2023/01/03 06:02:02;;;;;;;13.32;5.63;;;;;;;8.21;46.16;102664.03;7391321;19;20022;-59
2023/01/03 06:04:27;;;;;;;11.75;5.72;;;;;;;8.19;46.06;102665.41;7391320;19;20417;-58
2023/01/03 06:06:53;;;;;;;12.40;5.68;;;;;;;8.14;46.12;102664.31;7392031;19;19995;-57
2023/01/03 06:09:19;;;;;;;13.40;6.20;;;;;;;8.09;46.00;102667.06;7391530;19;20001;-58
2023/01/03 06:11:44;;;;;;;13.23;6.18;;;;;;;8.03;46.40;102668.19;7389655;19;20008;-58
2023/01/03 06:14:10;;;;;;;14.18;5.95;;;;;;;8.05;46.15;102671.44;7391409;19;19998;-58
2023/01/03 06:19:20;;;;;;;14.68;6.15;;;;;;;8.09;46.07;102675.22;7391142;19;19999;-58
2023/01/03 06:21:46;;;;;;;15.52;6.47;;;;;;;8.02;46.52;102676.63;7390802;19;20454;-57
2023/01/03 06:24:11;;;;;;;16.20;6.70;;;;;;;8.13;45.98;102673.59;7391029;19;19994;-59
2023/01/03 06:26:37;;;;;;;13.98;7.03;;;;;;;8.06;46.22;102683.13;7391633;19;19991;-57
2023/01/03 06:29:04;;;;;;;14.35;6.70;;;;;;;8.07;46.29;102688.28;7391019;19;20009;-58
2023/01/03 06:31:31;;;;;;;14.90;6.68;;;;;;;8.18;46.06;102685.53;7390968;19;19995;-57
2023/01/03 06:33:56;;;;;;;16.02;6.45;;;;;;;8.15;46.05;102693.16;7387645;19;20113;-58
2023/01/03 06:36:24;;;;;;;15.63;6.75;;;;;;;8.07;46.30;102688.28;7391067;19;20031;-57
2023/01/03 06:38:51;;;;;;;12.18;6.63;;;;;;;8.22;46.11;102683.91;7391252;19;20003;-58
2023/01/03 06:41:17;;;;;;;15.48;7.53;;;;;;;8.19;46.16;102687.16;7391424;19;20404;-58
2023/01/03 06:43:43;;;;;;;15.27;7.47;;;;;;;8.19;46.16;102698.06;7388030;19;19995;-58
2023/01/03 06:54:27;;;;;;;16.77;7.80;;;;;;;8.32;46.08;102698.28;7390315;19;19998;-58
2023/01/03 06:56:54;;;;;;;16.58;7.88;;;;;;;8.20;46.39;102710.53;7391201;19;20010;-58
2023/01/03 06:59:21;;;;;;;15.90;7.82;;;;;;;8.33;46.06;102707.25;7391133;19;20103;-59
2023/01/03 07:01:48;;;;;;;13.93;7.45;;;;;;;8.49;45.71;102703.38;7389971;19;20013;-59
2023/01/03 07:04:14;;;;;;;15.75;8.02;;;;;;;8.61;45.51;102710.38;7389563;19;20073;-59
2023/01/03 07:06:41;;;;;;;14.95;7.85;;;;;;;8.50;46.00;102712.38;7390289;19;20002;-59
2023/01/03 07:09:07;;;;;;;16.88;8.05;;;;;;;8.60;45.61;102716.91;7390171;19;19999;-59
2023/01/03 07:11:34;;;;;;;15.27;7.85;;;;;;;8.56;45.90;102715.84;7389714;19;20003;-59
2023/01/03 07:13:59;;;;;;;19.02;8.52;;;;;;;8.57;46.01;102725.66;7390096;19;20002;-59
2023/01/03 07:16:33;;;;;;;14.88;7.93;;;;;;;8.62;45.70;102739.25;7389675;19;20466;-59
2023/01/03 07:19:00;;;;;;;20.45;8.98;;;;;;;8.52;46.08;102730.03;7389902;19;20003;-59
2023/01/03 07:21:34;;;;;;;17.42;8.32;;;;;;;8.53;46.04;102731.66;7389683;19;20391;-57
2023/01/03 07:24:02;;;;;;;18.77;9.20;;;;;;;8.63;45.96;102730.81;7387384;19;20139;-59
2023/01/03 07:26:31;;;;;;;16.15;7.97;;;;;;;8.73;45.72;102723.66;7389670;19;20002;-59
2023/01/03 07:28:57;;;;;;;17.70;9.40;;;;;;;8.66;45.86;102734.84;7390074;19;20010;-60
2023/01/03 07:31:31;;;;;;;17.27;9.00;;;;;;;8.66;45.46;102729.41;7393728;19;20007;-59
2023/01/03 07:33:57;;;;;;;19.17;9.63;;;;;;;8.52;46.12;102740.91;7394399;19;20015;-58
2023/01/03 07:36:23;;;;;;;16.60;8.93;;;;;;;8.64;46.04;102742.50;7396744;19;20058;-58
2023/01/03 07:38:49;;;;;;;19.48;9.57;;;;;;;8.59;45.95;102746.06;7397292;19;20014;-58
2023/01/03 07:41:16;;;;;;;20.90;10.45;;;;;;;8.48;46.21;102742.56;7396734;19;20003;-59
2023/01/03 07:43:48;;;;;;;22.35;10.18;;;;;;;8.63;45.96;102747.13;7393325;19;20007;-58
2023/01/03 07:46:22;;;;;;;19.70;10.18;;;;;;;8.62;45.93;102756.38;7396744;19;20003;-58
2023/01/03 07:48:53;;;;;;;20.65;11.15;;;;;;;8.53;46.17;102764.31;7396441;19;20026;-58
2023/01/03 07:51:21;;;;;;;19.50;10.82;;;;;;;8.45;46.22;102766.81;7396252;19;20003;-59
2023/01/03 07:53:51;;;;;;;20.65;10.88;;;;;;;8.53;45.99;102763.50;7394566;19;20009;-59
2023/01/03 07:56:20;;;;;;;17.65;10.43;;;;;;;8.51;46.42;102765.69;7396466;19;20031;-58
2023/01/03 07:58:47;;;;;;;18.75;10.68;;;;;;;8.43;46.12;102763.53;7396131;19;20010;-58
2023/01/03 08:01:15;;;;;;;18.58;9.95;;;;;;;8.44;46.41;102771.44;7395996;19;20030;-59
2023/01/03 08:03:41;;;;;;;22.25;12.25;;;;;;;8.47;46.35;102775.50;7391114;19;20006;-59
2023/01/03 08:06:11;;;;;;;21.85;12.38;;;;;;;8.50;46.17;102778.50;7395924;19;19991;-59
2023/01/03 08:08:38;;;;;;;21.08;11.65;;;;;;;8.53;46.00;102777.94;7396098;19;20002;-58
2023/01/03 08:13:49;;;;;;;22.02;11.30;;;;;;;8.62;45.78;102780.88;7395069;19;20006;-58
2023/01/03 08:16:16;;;;;;;24.40;12.13;;;;;;;8.64;46.01;102786.84;7395555;19;20503;-59
2023/01/03 08:18:43;;;;;;;24.13;12.40;;;;;;;8.57;46.10;102782.81;7395798;19;20002;-59
2023/01/03 08:21:11;;;;;;;24.67;13.18;;;;;;;8.48;46.15;102790.72;7395765;19;20002;-59
2023/01/03 08:23:38;;;;;;;20.30;11.65;;;;;;;8.59;45.95;102794.25;7392048;19;20007;-59
2023/01/03 08:26:06;;;;;;;23.80;12.68;;;;;;;8.68;45.78;102792.56;7395260;19;20034;-58
2023/01/03 08:28:33;;;;;;;22.23;12.20;;;;;;;8.64;46.11;102796.94;7393553;19;20010;-59
2023/01/03 08:31:01;;;;;;;22.17;12.82;;;;;;;8.76;45.76;102796.59;7395798;19;20066;-60
2023/01/03 08:33:33;;;;;;;26.25;13.27;;;;;;;8.82;45.49;102788.13;7387116;19;20014;-57
2023/01/03 08:36:03;;;;;;;22.50;12.25;;;;;;;8.80;45.60;102798.50;7395142;19;20001;-57
2023/01/03 08:38:55;;;;;;;24.95;13.10;;;;;;;8.74;45.47;102791.44;7395902;19;20001;-57
2023/01/03 08:41:25;;;;;;;22.27;12.40;;;;;;;8.78;45.92;102799.84;7395395;19;20012;-57
2023/01/03 08:43:52;;;;;;;23.40;13.20;;;;;;;8.64;45.95;102796.94;7390875;19;20002;-57
2023/01/03 08:46:18;;;;;;;24.05;13.10;;;;;;;8.82;45.52;102809.91;7392987;19;20516;-57
2023/01/03 08:48:44;;;;;;;24.95;13.77;;;;;;;8.78;45.66;102803.41;7394460;19;19998;-60
2023/01/03 08:51:10;;;;;;;24.40;14.40;;;;;;;8.79;45.78;102807.75;7393342;19;20088;-58
2023/01/03 08:53:36;;;;;;;22.70;12.88;;;;;;;8.75;45.82;102809.41;7392679;19;20003;-58
2023/01/03 08:56:02;;;;;;;22.38;13.55;;;;;;;8.80;45.69;102817.56;7395459;19;19995;-58
2023/01/03 08:58:28;;;;;;;24.45;13.75;;;;;;;8.50;46.28;102821.22;7395510;19;20386;-58
2023/01/03 09:00:54;;;;;;;21.77;12.40;;;;;;;8.59;46.19;102825.00;7391798;19;20009;-58
2023/01/03 09:03:20;;;;;;;20.75;13.07;;;;;;;8.60;45.82;102829.34;7390369;19;20467;-59
2023/01/03 09:05:46;;;;;;;25.75;13.60;;;;;;;8.67;45.65;102823.59;7395409;19;19999;-61
2023/01/03 09:08:22;;;;;;;21.70;12.38;;;;;;;8.64;45.58;102835.03;7392128;19;20040;-59
2023/01/03 09:10:47;;;;;;;25.83;13.55;;;;;;;8.66;45.52;102836.38;7392485;19;19999;-59
2023/01/03 09:13:13;;;;;;;24.40;13.75;;;;;;;8.64;45.46;102832.31;7391666;19;20325;-59
2023/01/03 09:15:39;;;;;;;22.85;13.60;;;;;;;8.71;45.37;102828.22;7393162;19;19995;-59
2023/01/03 09:18:06;;;;;;;24.27;12.90;;;;;;;8.48;45.76;102835.13;7393525;19;20003;-60
2023/01/03 09:20:32;;;;;;;21.73;13.60;;;;;;;8.27;46.34;102841.66;7393684;19;19998;-60
2023/01/03 09:22:57;;;;;;;22.00;13.38;;;;;;;8.24;46.17;102840.28;7389740;19;20011;-59
2023/01/03 09:25:23;;;;;;;22.33;13.15;;;;;;;8.36;46.08;102833.78;7392866;19;20066;-59
2023/01/03 09:27:49;;;;;;;22.65;13.82;;;;;;;8.41;45.64;102837.28;7394162;19;20510;-59
2023/01/03 09:30:16;;;;;;;22.67;13.38;;;;;;;8.31;45.86;102842.72;7393191;19;20006;-59
2023/01/03 09:32:48;;;;;;;23.67;14.15;;;;;;;8.14;46.09;102838.41;7389309;19;20006;-58
2023/01/03 09:35:24;;;;;;;24.90;14.13;;;;;;;7.95;46.24;102843.63;7393882;19;20042;-58
2023/01/03 09:37:50;;;;;;;25.45;13.73;;;;;;;7.92;46.36;102846.06;7391425;19;20006;-59
2023/01/03 09:40:16;;;;;;;21.80;12.88;;;;;;;7.92;46.52;102846.88;7391431;19;20062;-58
2023/01/03 09:45:33;;;;;;;23.17;14.20;;;;;;;7.93;46.30;102836.81;7392980;19;20020;-59
2023/01/03 09:48:00;;;;;;;22.10;12.95;;;;;;;7.89;46.61;102838.44;7390390;19;20418;-58
2023/01/03 09:50:28;;;;;;;23.17;13.85;;;;;;;8.01;45.93;102827.28;7391237;19;19999;-59
2023/01/03 10:04:43;;;;;;;26.77;14.55;;;;;;;7.91;46.02;102834.38;7389824;19;20065;-60
2023/01/03 10:07:30;;;;;;;23.60;13.88;;;;;;;7.91;46.09;102828.94;7390102;19;20002;-59
2023/01/03 10:10:25;;;;;;;24.20;13.55;;;;;;;7.90;46.03;102832.75;7393037;19;20007;-59
2023/01/03 10:12:52;;;;;;;22.75;13.68;;;;;;;7.77;46.66;102831.38;7391537;19;20007;-59
2023/01/03 10:15:42;;;;;;;22.70;12.60;;;;;;;8.06;45.71;102835.44;7392355;19;19995;-59
2023/01/03 10:18:27;;;;;;;22.40;13.88;;;;;;;7.79;46.47;102825.66;7391548;19;19994;-59
2023/01/03 10:21:05;;;;;;;20.75;12.88;;;;;;;8.05;46.10;102826.47;7391923;19;20078;-59
2023/01/03 10:23:31;;;;;;;20.42;12.68;;;;;;;7.94;46.67;102824.84;7390057;19;20002;-59
2023/01/03 10:25:57;;;;;;;23.35;13.82;;;;;;;8.13;46.25;102831.34;7391283;19;20016;-59
2023/01/03 10:28:24;;;;;;;25.13;14.00;;;;;;;8.02;46.52;102818.84;7391212;19;19995;-59
2023/01/03 10:31:11;;;;;;;22.02;14.07;;;;;;;8.39;45.92;102825.88;7391560;19;20006;-59
2023/01/03 10:33:45;;;;;;;24.65;14.82;;;;;;;8.36;46.20;102829.13;7388977;19;20007;-59
2023/01/03 10:36:19;;;;;;;26.85;15.80;;;;;;;8.31;46.62;102818.25;7389784;19;19999;-59
2023/01/03 10:38:46;;;;;;;24.17;15.00;;;;;;;8.46;46.27;102823.66;7390687;19;20503;-59
2023/01/03 10:41:22;;;;;;;25.38;16.77;;;;;;;8.55;46.27;102814.94;7389394;19;20006;-59
2023/01/03 10:44:05;;;;;;;25.40;16.20;;;;;;;8.47;46.25;102814.41;7388662;19;20007;-59
2023/01/03 10:46:31;;;;;;;26.23;16.20;;;;;;;8.57;46.46;102807.31;7391040;19;20003;-59
2023/01/03 10:49:13;;;;;;;25.90;16.25;;;;;;;8.68;46.05;102798.00;7389186;19;20463;-59
2023/01/03 10:51:49;;;;;;;26.77;16.13;;;;;;;8.92;45.84;102797.34;7391561;19;20006;-59
2023/01/03 10:54:17;;;;;;;26.55;16.15;;;;;;;8.70;46.21;102787.66;7387852;19;20002;-59
2023/01/03 10:56:45;;;;;;;28.23;17.33;;;;;;;8.86;46.00;102789.19;7391540;19;20012;-59
2023/01/03 10:59:16;;;;;;;25.23;16.30;;;;;;;8.92;46.19;102791.91;7390646;19;20076;-59
2023/01/03 11:02:07;;;;;;;25.75;16.23;;;;;;;8.81;46.18;102805.56;7388932;19;20415;-60
2023/01/03 11:04:34;;;;;;;25.65;16.58;;;;;;;8.82;46.40;102799.03;7390065;19;20002;-59
2023/01/03 11:07:14;;;;;;;21.65;14.10;;;;;;;8.86;45.76;102800.06;7396521;19;20514;-59
2023/01/03 11:09:57;;;;;;;23.88;15.02;;;;;;;8.83;46.19;102791.66;7397039;19;19995;-59
2023/01/03 11:12:37;;;;;;;23.90;14.63;;;;;;;8.97;45.95;102792.69;7395344;19;20118;-59
2023/01/03 11:15:14;;;;;;;22.70;14.73;;;;;;;9.04;45.46;102785.00;7398639;19;19994;-59
2023/01/03 11:18:00;;;;;;;25.67;16.08;;;;;;;8.90;45.97;102795.72;7396759;19;20009;-59
2023/01/03 11:20:47;;;;;;;24.33;15.32;;;;;;;8.92;45.85;102786.47;7396079;19;19999;-59
2023/01/03 11:24:03;;;;;;;24.85;15.73;;;;;;;9.06;45.49;102776.53;7395705;19;20010;-59
2023/01/03 11:26:50;;;;;;;24.85;15.30;;;;;;;9.04;45.58;102786.91;7396482;19;20011;-59
2023/01/03 11:29:42;;;;;;;23.30;13.93;;;;;;;9.26;45.21;102776.41;7395112;19;19994;-60
2023/01/03 11:32:42;;;;;;;25.20;14.77;;;;;;;9.33;45.35;102772.53;7396027;19;20002;-60
2023/01/03 11:35:27;;;;;;;27.70;16.15;;;;;;;9.42;45.47;102773.56;7395698;19;20036;-60
2023/01/03 11:38:27;;;;;;;27.80;16.08;;;;;;;9.31;44.80;102772.03;7395078;19;20475;-60
2023/01/03 11:40:56;;;;;;;23.52;15.07;;;;;;;9.19;45.35;102766.94;7395956;19;20023;-60
2023/01/03 11:43:53;;;;;;;21.88;14.77;;;;;;;9.34;44.73;102766.00;7394002;19;20332;-60
2023/01/03 11:46:39;;;;;;;25.08;15.65;;;;;;;8.99;45.04;102748.81;7395381;19;20006;-60
2023/01/03 11:49:14;;;;;;;24.90;16.27;;;;;;;9.01;45.50;102752.88;7394808;19;20006;-61
2023/01/03 11:52:03;;;;;;;24.23;15.55;;;;;;;8.97;45.17;102743.66;7395355;19;19998;-60
2023/01/03 11:55:12;;;;;;;24.27;15.00;;;;;;;9.06;45.34;102741.13;7395537;19;20002;-59
2023/01/03 11:57:57;;;;;;;26.73;15.95;;;;;;;9.10;45.50;102728.59;7397463;19;20003;-59
2023/01/03 12:00:34;;;;;;;24.10;14.95;;;;;;;9.25;45.45;102731.19;7396176;19;20080;-60
2023/01/03 12:03:21;;;;;;;25.30;15.50;;;;;;;9.24;45.52;102717.84;7394432;19;20010;-59
2023/01/03 12:06:03;;;;;;;26.35;16.17;;;;;;;9.30;45.59;102715.88;7395858;19;20578;-59
2023/01/03 12:08:38;;;;;;;26.05;16.20;;;;;;;9.32;45.53;102719.16;7394457;19;19999;-59
2023/01/03 12:11:24;;;;;;;27.88;15.85;;;;;;;9.35;45.16;102721.28;7395917;19;20010;-59
2023/01/03 12:13:56;;;;;;;25.75;16.48;;;;;;;9.31;45.43;102718.31;7392597;19;19999;-58
2023/01/03 12:16:29;;;;;;;26.58;16.92;;;;;;;9.31;45.42;102723.78;7396286;19;20009;-57
2023/01/03 12:19:19;;;;;;;27.50;17.23;;;;;;;9.13;45.76;102711.66;7393788;19;20105;-58
2023/01/03 12:21:55;;;;;;;28.48;16.25;;;;;;;9.22;45.87;102725.50;7394620;19;20376;-58
2023/01/03 12:24:40;;;;;;;28.20;17.27;;;;;;;9.36;45.45;102717.47;7390561;19;20003;-57
2023/01/03 12:27:13;;;;;;;;;;;;;;;9.00;46.18;102710.41;7395964;19;20070;-57
2023/01/03 12:29:45;;;;;;;24.87;16.03;;;;;;;9.31;46.00;102714.78;7392986;19;20376;-59
2023/01/03 12:32:17;;;;;;;29.33;16.67;;;;;;;9.62;45.26;102702.53;7393856;19;20007;-60
2023/01/03 12:34:53;;;;;;;26.80;16.88;;;;;;;9.72;45.29;102706.25;7391421;19;20015;-58
2023/01/03 12:37:26;;;;;;;26.15;16.08;;;;;;;9.53;45.62;102700.69;7395369;19;20016;-59
2023/01/03 12:39:58;;;;;;;26.58;16.48;;;;;;;9.59;45.34;102692.19;7394586;19;20006;-59
2023/01/03 12:42:52;;;;;;;25.40;16.52;;;;;;;9.48;45.37;102693.38;7393841;19;20006;-59
2023/01/03 12:45:24;;;;;;;;;;;;;;;9.03;46.13;102684.50;7395738;19;19999;-59
2023/01/03 12:48:12;;;;;;;25.00;16.10;;;;;;;9.30;45.86;102683.19;7393021;19;19910;-59
2023/01/03 12:50:46;;;;;;;28.58;17.48;;;;;;;9.45;45.70;102681.13;7394412;19;20030;-58